createdAt,value
2018-02-16T00:00:10.198Z,977.78
2018-02-16T00:01:05.192Z,977.86
2018-02-16T00:02:05.669Z,977.78
2018-02-16T00:03:05.701Z,977.81
2018-02-16T00:04:05.996Z,977.95
2018-02-16T00:05:05.401Z,977.97
2018-02-16T00:06:04.930Z,977.97
2018-02-16T00:07:05.968Z,977.89
2018-02-16T00:08:05.363Z,977.97
2018-02-16T00:09:05.097Z,978.00
2018-02-16T00:10:05.442Z,978.00
2018-02-16T00:11:05.944Z,977.95
2018-02-16T00:12:05.039Z,978.06
2018-02-16T00:13:05.487Z,978.09
2018-02-16T00:14:05.349Z,978.17
2018-02-16T00:15:05.950Z,978.09
2018-02-16T00:16:05.395Z,978.31
2018-02-16T00:17:05.043Z,978.28
2018-02-16T00:18:05.698Z,978.26
2018-02-16T00:19:05.128Z,978.47
2018-02-16T00:20:05.508Z,978.50
2018-02-16T00:21:05.347Z,978.52
2018-02-16T00:22:05.167Z,978.47
2018-02-16T00:23:05.661Z,978.40
2018-02-16T00:24:05.620Z,978.34
2018-02-16T00:25:05.165Z,978.31
2018-02-16T00:26:06.143Z,978.34
2018-02-16T00:27:04.993Z,978.34
2018-02-16T00:28:05.694Z,978.34
2018-02-16T00:29:10.834Z,978.23
2018-02-16T00:30:06.081Z,978.28
2018-02-16T00:31:05.981Z,978.23
2018-02-16T00:32:05.768Z,978.23
2018-02-16T00:33:05.357Z,978.28
2018-02-16T00:34:05.367Z,978.31
2018-02-16T00:35:05.051Z,978.23
2018-02-16T00:36:05.697Z,978.34
2018-02-16T00:37:06.298Z,978.14
2018-02-16T00:38:05.435Z,978.12
2018-02-16T00:39:05.282Z,978.26
2018-02-16T00:40:05.724Z,978.26
2018-02-16T00:41:05.333Z,978.28
2018-02-16T00:42:05.893Z,978.28
2018-02-16T00:43:05.958Z,978.40
2018-02-16T00:44:05.949Z,978.44
2018-02-16T00:45:05.377Z,978.40
2018-02-16T00:46:05.670Z,978.44
2018-02-16T00:47:05.337Z,978.26
2018-02-16T00:48:05.495Z,978.40
2018-02-16T00:49:05.547Z,978.44
2018-02-16T00:50:11.599Z,978.47
2018-02-16T00:51:05.987Z,978.50
2018-02-16T00:52:06.815Z,978.40
2018-02-16T00:53:06.031Z,978.37
2018-02-16T00:54:06.047Z,978.37
2018-02-16T00:55:05.135Z,978.47
2018-02-16T00:56:05.387Z,978.50
2018-02-16T00:57:05.559Z,978.69
2018-02-16T00:58:05.370Z,978.50
2018-02-16T00:59:05.098Z,978.78
2018-02-16T01:00:05.548Z,978.72
2018-02-16T01:01:05.805Z,978.72
2018-02-16T01:02:05.892Z,978.78
2018-02-16T01:03:05.641Z,978.83
2018-02-16T01:04:05.921Z,978.95
2018-02-16T01:05:05.661Z,978.95
2018-02-16T01:06:05.752Z,978.95
2018-02-16T01:07:05.243Z,978.83
2018-02-16T01:08:05.558Z,978.72
2018-02-16T01:09:05.794Z,978.83
2018-02-16T01:10:05.792Z,978.75
2018-02-16T01:11:05.458Z,978.83
2018-02-16T01:12:05.092Z,978.67
2018-02-16T01:13:06.052Z,978.83
2018-02-16T01:14:05.308Z,978.58
2018-02-16T01:15:05.682Z,978.72
2018-02-16T01:16:05.488Z,978.75
2018-02-16T01:17:05.167Z,978.67
2018-02-16T01:18:05.015Z,978.81
2018-02-16T01:19:05.383Z,978.55
2018-02-16T01:20:05.334Z,978.61
2018-02-16T01:21:05.267Z,978.67
2018-02-16T01:22:05.458Z,978.67
2018-02-16T01:23:05.811Z,978.78
2018-02-16T01:24:05.422Z,978.69
2018-02-16T01:25:05.074Z,978.67
2018-02-16T01:26:05.452Z,978.50
2018-02-16T01:27:05.122Z,978.67
2018-02-16T01:28:05.323Z,978.75
2018-02-16T01:29:05.199Z,978.81
2018-02-16T01:30:06.047Z,978.95
2018-02-16T01:31:05.505Z,978.92
2018-02-16T01:32:05.196Z,978.92
2018-02-16T01:33:05.367Z,978.86
2018-02-16T01:34:06.047Z,978.84
2018-02-16T01:35:05.061Z,978.95
2018-02-16T01:36:05.945Z,978.92
2018-02-16T01:37:05.865Z,978.84
2018-02-16T01:38:05.437Z,978.95
2018-02-16T01:39:05.453Z,978.95
2018-02-16T01:40:05.127Z,978.92
2018-02-16T01:41:05.958Z,978.75
2018-02-16T01:42:05.188Z,978.75
2018-02-16T01:43:05.963Z,978.78
2018-02-16T01:44:05.890Z,978.72
2018-02-16T01:45:05.906Z,978.86
2018-02-16T01:46:05.617Z,978.89
2018-02-16T01:47:05.756Z,978.92
2018-02-16T01:48:05.657Z,979.03
2018-02-16T01:49:05.376Z,978.92
2018-02-16T01:50:05.148Z,979.17
2018-02-16T01:51:05.810Z,979.00
2018-02-16T01:52:05.278Z,979.20
2018-02-16T01:53:05.606Z,979.03
2018-02-16T01:54:05.690Z,979.17
2018-02-16T01:55:05.799Z,979.26
2018-02-16T01:56:05.882Z,979.20
2018-02-16T01:57:05.677Z,979.23
2018-02-16T01:58:04.964Z,979.20
2018-02-16T01:59:05.588Z,979.17
2018-02-16T02:00:05.730Z,979.31
2018-02-16T02:01:05.569Z,979.26
2018-02-16T02:02:15.361Z,979.28
2018-02-16T02:03:05.160Z,979.23
2018-02-16T02:04:05.575Z,979.12
2018-02-16T02:05:05.234Z,979.17
2018-02-16T02:06:05.486Z,979.06
2018-02-16T02:07:05.345Z,979.12
2018-02-16T02:08:05.076Z,979.17
2018-02-16T02:09:06.017Z,979.09
2018-02-16T02:10:05.588Z,979.23
2018-02-16T02:11:05.534Z,979.28
2018-02-16T02:12:05.338Z,979.12
2018-02-16T02:13:05.019Z,979.09
2018-02-16T02:14:10.607Z,979.17
2018-02-16T02:15:05.736Z,979.14
2018-02-16T02:16:05.854Z,979.14
2018-02-16T02:17:05.827Z,979.17
2018-02-16T02:18:05.098Z,979.17
2018-02-16T02:19:06.201Z,979.31
2018-02-16T02:20:05.150Z,979.17
2018-02-16T02:21:05.523Z,979.31
2018-02-16T02:22:05.839Z,979.31
2018-02-16T02:23:05.425Z,979.20
2018-02-16T02:24:05.623Z,979.17
2018-02-16T02:25:05.734Z,979.26
2018-02-16T02:26:05.926Z,979.26
2018-02-16T02:27:05.458Z,979.17
2018-02-16T02:28:05.598Z,979.20
2018-02-16T02:29:05.935Z,979.28
2018-02-16T02:30:05.384Z,979.14
2018-02-16T02:31:05.450Z,979.14
2018-02-16T02:32:04.952Z,979.42
2018-02-16T02:33:05.745Z,979.23
2018-02-16T02:34:05.816Z,979.34
2018-02-16T02:35:06.044Z,979.37
2018-02-16T02:36:05.193Z,979.45
2018-02-16T02:37:05.708Z,979.51
2018-02-16T02:38:05.218Z,979.45
2018-02-16T02:39:05.890Z,979.51
2018-02-16T02:40:05.711Z,979.59
2018-02-16T02:41:05.558Z,979.51
2018-02-16T02:42:05.050Z,979.56
2018-02-16T02:43:04.994Z,979.51
2018-02-16T02:44:05.854Z,979.51
2018-02-16T02:45:05.314Z,979.42
2018-02-16T02:46:05.792Z,979.53
2018-02-16T02:47:05.826Z,979.59
2018-02-16T02:48:10.817Z,979.53
2018-02-16T02:49:05.717Z,979.51
2018-02-16T02:50:05.195Z,979.56
2018-02-16T02:51:05.150Z,979.45
2018-02-16T02:52:05.857Z,979.56
2018-02-16T02:53:06.188Z,979.70
2018-02-16T02:54:05.013Z,979.67
2018-02-16T02:55:05.190Z,979.73
2018-02-16T02:56:05.179Z,979.67
2018-02-16T02:57:05.078Z,979.59
2018-02-16T02:58:05.941Z,979.62
2018-02-16T02:59:05.868Z,979.78
2018-02-16T03:00:05.452Z,979.81
2018-02-16T03:01:05.933Z,979.70
2018-02-16T03:02:05.180Z,979.84
2018-02-16T03:03:06.995Z,979.65
2018-02-16T03:04:05.220Z,979.79
2018-02-16T03:05:05.095Z,979.73
2018-02-16T03:06:05.564Z,979.92
2018-02-16T03:07:05.346Z,979.76
2018-02-16T03:08:05.792Z,979.89
2018-02-16T03:09:05.257Z,979.79
2018-02-16T03:10:05.192Z,979.86
2018-02-16T03:11:06.035Z,980.03
2018-02-16T03:12:05.226Z,979.79
2018-02-16T03:13:05.993Z,979.84
2018-02-16T03:14:05.277Z,980.00
2018-02-16T03:15:05.286Z,979.89
2018-02-16T03:16:05.339Z,980.00
2018-02-16T03:17:05.382Z,979.92
2018-02-16T03:18:05.394Z,980.03
2018-02-16T03:19:05.727Z,979.89
2018-02-16T03:20:05.560Z,979.86
2018-02-16T03:21:05.352Z,979.92
2018-02-16T03:22:05.446Z,980.03
2018-02-16T03:23:05.319Z,980.03
2018-02-16T03:24:05.243Z,979.97
2018-02-16T03:25:05.306Z,980.06
2018-02-16T03:26:05.464Z,980.03
2018-02-16T03:27:05.649Z,980.14
2018-02-16T03:28:05.765Z,980.14
2018-02-16T03:29:05.409Z,979.97
2018-02-16T03:30:04.934Z,980.09
2018-02-16T03:31:05.182Z,980.11
2018-02-16T03:32:05.941Z,980.14
2018-02-16T03:33:05.402Z,980.11
2018-02-16T03:34:05.471Z,980.30
2018-02-16T03:35:05.351Z,980.11
2018-02-16T03:36:05.724Z,980.24
2018-02-16T03:37:05.668Z,980.11
2018-02-16T03:38:05.778Z,980.17
2018-02-16T03:39:05.839Z,980.24
2018-02-16T03:40:05.711Z,980.33
2018-02-16T03:41:05.328Z,980.38
2018-02-16T03:42:05.470Z,980.47
2018-02-16T03:43:05.333Z,980.44
2018-02-16T03:44:05.857Z,980.52
2018-02-16T03:45:05.696Z,980.58
2018-02-16T03:46:05.597Z,980.52
2018-02-16T03:47:05.227Z,980.52
2018-02-16T03:48:05.818Z,980.41
2018-02-16T03:49:05.459Z,980.52
2018-02-16T03:50:05.406Z,980.44
2018-02-16T03:51:05.374Z,980.47
2018-02-16T03:52:05.898Z,980.38
2018-02-16T03:53:05.857Z,980.27
2018-02-16T03:54:05.487Z,980.47
2018-02-16T03:55:04.990Z,980.41
2018-02-16T03:56:05.619Z,980.36
2018-02-16T03:57:05.872Z,980.17
2018-02-16T03:58:05.468Z,980.14
2018-02-16T03:59:06.074Z,980.00
2018-02-16T04:00:06.091Z,980.36
2018-02-16T04:01:05.529Z,980.47
2018-02-16T04:02:05.262Z,980.30
2018-02-16T04:03:05.868Z,980.36
2018-02-16T04:04:05.729Z,980.44
2018-02-16T04:05:05.754Z,980.41
2018-02-16T04:06:05.775Z,980.47
2018-02-16T04:07:05.845Z,980.63
2018-02-16T04:08:05.610Z,980.66
2018-02-16T04:09:05.034Z,980.61
2018-02-16T04:10:05.484Z,980.69
2018-02-16T04:11:06.365Z,980.58
2018-02-16T04:12:05.958Z,980.55
2018-02-16T04:13:05.726Z,980.52
2018-02-16T04:14:05.599Z,980.72
2018-02-16T04:15:05.148Z,980.72
2018-02-16T04:16:06.039Z,980.69
2018-02-16T04:17:05.528Z,980.72
2018-02-16T04:18:05.549Z,980.88
2018-02-16T04:19:05.521Z,980.86
2018-02-16T04:20:06.014Z,980.91
2018-02-16T04:21:05.302Z,980.91
2018-02-16T04:22:05.483Z,980.94
2018-02-16T04:23:05.226Z,980.89
2018-02-16T04:24:05.790Z,981.00
2018-02-16T04:25:05.203Z,981.11
2018-02-16T04:26:05.189Z,981.02
2018-02-16T04:27:05.179Z,981.14
2018-02-16T04:28:05.205Z,981.28
2018-02-16T04:29:05.071Z,981.16
2018-02-16T04:30:05.686Z,981.11
2018-02-16T04:31:05.253Z,981.05
2018-02-16T04:32:05.843Z,981.28
2018-02-16T04:33:05.604Z,981.11
2018-02-16T04:34:05.250Z,981.14
2018-02-16T04:35:05.194Z,981.11
2018-02-16T04:36:04.927Z,981.19
2018-02-16T04:37:05.499Z,981.11
2018-02-16T04:38:05.947Z,981.08
2018-02-16T04:39:05.734Z,981.05
2018-02-16T04:40:05.445Z,981.08
2018-02-16T04:41:04.993Z,981.14
2018-02-16T04:42:04.926Z,981.11
2018-02-16T04:43:05.683Z,981.08
2018-02-16T04:44:05.036Z,981.00
2018-02-16T04:45:10.860Z,981.17
2018-02-16T04:46:06.105Z,981.11
2018-02-16T04:47:05.213Z,981.19
2018-02-16T04:48:06.254Z,981.03
2018-02-16T04:49:05.737Z,981.11
2018-02-16T04:50:05.490Z,981.20
2018-02-16T04:51:05.533Z,981.31
2018-02-16T04:52:04.936Z,981.31
2018-02-16T04:53:05.395Z,981.17
2018-02-16T04:54:05.200Z,981.20
2018-02-16T04:55:05.027Z,981.34
2018-02-16T04:56:06.677Z,981.20
2018-02-16T04:57:06.046Z,981.39
2018-02-16T04:58:05.532Z,981.31
2018-02-16T04:59:05.262Z,981.28
2018-02-16T05:00:05.053Z,981.36
2018-02-16T05:01:04.978Z,981.25
2018-02-16T05:02:05.964Z,981.39
2018-02-16T05:03:05.862Z,981.36
2018-02-16T05:04:05.323Z,981.36
2018-02-16T05:05:05.064Z,981.42
2018-02-16T05:06:05.677Z,981.39
2018-02-16T05:07:05.644Z,981.42
2018-02-16T05:08:05.890Z,981.63
2018-02-16T05:09:05.343Z,981.69
2018-02-16T05:10:05.151Z,981.51
2018-02-16T05:11:05.773Z,981.69
2018-02-16T05:12:05.441Z,981.48
2018-02-16T05:13:05.303Z,981.61
2018-02-16T05:14:05.338Z,981.53
2018-02-16T05:15:05.213Z,981.51
2018-02-16T05:16:05.898Z,981.66
2018-02-16T05:17:06.577Z,981.64
2018-02-16T05:18:05.088Z,981.54
2018-02-16T05:19:05.458Z,981.64
2018-02-16T05:20:05.373Z,981.83
2018-02-16T05:21:05.134Z,981.78
2018-02-16T05:22:05.914Z,981.89
2018-02-16T05:23:05.973Z,981.72
2018-02-16T05:24:05.648Z,981.64
2018-02-16T05:25:06.201Z,981.75
2018-02-16T05:26:05.298Z,981.83
2018-02-16T05:27:05.912Z,981.69
2018-02-16T05:28:05.904Z,981.61
2018-02-16T05:29:05.754Z,981.64
2018-02-16T05:30:05.421Z,981.72
2018-02-16T05:31:05.834Z,981.69
2018-02-16T05:32:04.988Z,981.61
2018-02-16T05:33:05.281Z,981.56
2018-02-16T05:34:05.206Z,981.64
2018-02-16T05:35:05.388Z,981.69
2018-02-16T05:36:05.902Z,981.83
2018-02-16T05:37:05.007Z,981.75
2018-02-16T05:38:05.011Z,981.67
2018-02-16T05:39:05.811Z,981.81
2018-02-16T05:40:05.721Z,981.95
2018-02-16T05:41:05.249Z,981.84
2018-02-16T05:42:05.675Z,981.78
2018-02-16T05:43:05.409Z,981.84
2018-02-16T05:44:05.360Z,981.84
2018-02-16T05:45:05.458Z,981.81
2018-02-16T05:46:05.577Z,981.95
2018-02-16T05:47:10.779Z,981.92
2018-02-16T05:48:05.656Z,981.87
2018-02-16T05:49:05.815Z,981.78
2018-02-16T05:50:05.090Z,981.87
2018-02-16T05:51:05.185Z,981.90
2018-02-16T05:52:05.748Z,981.76
2018-02-16T05:53:05.761Z,981.90
2018-02-16T05:54:05.186Z,981.98
2018-02-16T05:55:04.964Z,981.87
2018-02-16T05:56:05.669Z,982.01
2018-02-16T05:57:06.340Z,982.01
2018-02-16T05:58:06.265Z,982.07
2018-02-16T05:59:05.935Z,982.10
2018-02-16T06:00:05.498Z,982.12
2018-02-16T06:01:05.257Z,982.01
2018-02-16T06:02:06.151Z,981.99
2018-02-16T06:03:06.251Z,982.04
2018-02-16T06:04:05.080Z,982.04
2018-02-16T06:05:05.533Z,982.07
2018-02-16T06:06:05.904Z,982.07
2018-02-16T06:07:05.532Z,982.13
2018-02-16T06:08:05.413Z,982.10
2018-02-16T06:09:05.273Z,981.99
2018-02-16T06:10:06.143Z,982.24
2018-02-16T06:11:08.283Z,982.10
2018-02-16T06:12:05.230Z,982.16
2018-02-16T06:13:05.588Z,982.27
2018-02-16T06:14:10.285Z,982.30
2018-02-16T06:15:05.065Z,982.38
2018-02-16T06:16:05.803Z,982.49
2018-02-16T06:17:05.862Z,982.44
2018-02-16T06:18:05.457Z,982.35
2018-02-16T06:19:10.596Z,982.24
2018-02-16T06:20:15.034Z,982.35
2018-02-16T06:21:05.449Z,982.41
2018-02-16T06:22:05.034Z,982.41
2018-02-16T06:23:05.677Z,982.38
2018-02-16T06:24:05.558Z,982.22
2018-02-16T06:25:05.113Z,982.36
2018-02-16T06:26:05.246Z,982.52
2018-02-16T06:27:05.689Z,982.33
2018-02-16T06:28:05.405Z,982.36
2018-02-16T06:29:06.079Z,982.27
2018-02-16T06:30:05.291Z,982.39
2018-02-16T06:31:05.856Z,982.58
2018-02-16T06:32:05.436Z,982.55
2018-02-16T06:33:05.325Z,982.39
2018-02-16T06:34:05.015Z,982.39
2018-02-16T06:35:05.605Z,982.44
2018-02-16T06:36:05.271Z,982.39
2018-02-16T06:37:05.810Z,982.45
2018-02-16T06:38:06.021Z,982.33
2018-02-16T06:39:05.705Z,982.45
2018-02-16T06:40:05.397Z,982.36
2018-02-16T06:41:05.038Z,982.39
2018-02-16T06:42:05.696Z,982.64
2018-02-16T06:43:05.624Z,982.56
2018-02-16T06:44:05.371Z,982.48
2018-02-16T06:45:05.296Z,982.45
2018-02-16T06:46:05.525Z,982.45
2018-02-16T06:47:05.277Z,982.59
2018-02-16T06:48:05.810Z,982.67
2018-02-16T06:49:05.584Z,982.62
2018-02-16T06:50:05.753Z,982.70
2018-02-16T06:51:05.307Z,982.62
2018-02-16T06:52:05.834Z,982.78
2018-02-16T06:53:06.011Z,982.73
2018-02-16T06:54:05.762Z,982.80
2018-02-16T06:55:05.746Z,982.67
2018-02-16T06:56:06.135Z,982.70
2018-02-16T06:57:05.425Z,982.70
2018-02-16T06:58:05.575Z,982.80
2018-02-16T06:59:05.381Z,982.73
2018-02-16T07:00:05.506Z,982.78
2018-02-16T07:01:05.160Z,982.81
2018-02-16T07:02:05.668Z,982.68
2018-02-16T07:03:05.791Z,982.86
2018-02-16T07:04:05.922Z,982.81
2018-02-16T07:05:05.015Z,982.81
2018-02-16T07:06:05.513Z,982.84
2018-02-16T07:07:05.173Z,982.86
2018-02-16T07:08:05.812Z,982.81
2018-02-16T07:09:05.430Z,982.89
2018-02-16T07:10:10.482Z,982.84
2018-02-16T07:11:10.614Z,982.92
2018-02-16T07:12:05.824Z,982.98
2018-02-16T07:13:05.825Z,982.95
2018-02-16T07:14:05.404Z,983.06
2018-02-16T07:15:05.151Z,983.17
2018-02-16T07:16:05.952Z,983.00
2018-02-16T07:17:05.901Z,983.11
2018-02-16T07:18:05.898Z,983.14
2018-02-16T07:19:05.558Z,982.94
2018-02-16T07:20:05.709Z,982.99
2018-02-16T07:21:05.152Z,983.05
2018-02-16T07:22:10.531Z,983.07
2018-02-16T07:23:05.767Z,983.01
2018-02-16T07:24:05.428Z,983.18
2018-02-16T07:25:05.098Z,983.07
2018-02-16T07:26:05.746Z,983.20
2018-02-16T07:27:05.134Z,983.09
2018-02-16T07:28:10.427Z,983.11
2018-02-16T07:29:05.983Z,983.22
2018-02-16T07:30:05.232Z,983.22
2018-02-16T07:31:05.784Z,983.19
2018-02-16T07:32:05.517Z,983.35
2018-02-16T07:33:05.144Z,983.21
2018-02-16T07:34:06.084Z,983.18
2018-02-16T07:35:05.760Z,983.18
2018-02-16T07:36:05.313Z,983.26
2018-02-16T07:37:05.527Z,983.23
2018-02-16T07:38:05.214Z,983.12
2018-02-16T07:39:05.115Z,983.28
2018-02-16T07:40:05.014Z,983.14
2018-02-16T07:41:05.922Z,983.31
2018-02-16T07:42:06.026Z,983.38
2018-02-16T07:43:05.592Z,983.30
2018-02-16T07:44:05.259Z,983.49
2018-02-16T07:45:04.949Z,983.54
2018-02-16T07:46:05.674Z,983.30
2018-02-16T07:47:05.525Z,983.30
2018-02-16T07:48:10.175Z,983.51
2018-02-16T07:49:05.506Z,983.45
2018-02-16T07:50:05.388Z,983.48
2018-02-16T07:51:05.929Z,983.48
2018-02-16T07:52:05.162Z,983.42
2018-02-16T07:53:05.201Z,983.47
2018-02-16T07:54:05.333Z,983.41
2018-02-16T07:55:05.584Z,983.55
2018-02-16T07:56:05.309Z,983.52
2018-02-16T07:57:05.783Z,983.44
2018-02-16T07:58:05.277Z,983.38
2018-02-16T07:59:05.351Z,983.55
2018-02-16T08:00:05.742Z,983.55
2018-02-16T08:01:05.364Z,983.33
2018-02-16T08:02:06.187Z,983.51
2018-02-16T08:03:05.419Z,983.48
2018-02-16T08:04:05.374Z,983.46
2018-02-16T08:05:05.406Z,983.59
2018-02-16T08:06:05.594Z,983.42
2018-02-16T08:07:05.621Z,983.62
2018-02-16T08:08:05.415Z,983.59
2018-02-16T08:09:06.759Z,983.50
2018-02-16T08:10:05.447Z,983.50
2018-02-16T08:11:05.158Z,983.42
2018-02-16T08:12:05.531Z,983.59
2018-02-16T08:13:05.268Z,983.41
2018-02-16T08:14:05.097Z,983.55
2018-02-16T08:15:05.906Z,983.52
2018-02-16T08:16:05.057Z,983.55
2018-02-16T08:17:05.695Z,983.58
2018-02-16T08:18:05.316Z,983.63
2018-02-16T08:19:05.914Z,983.58
2018-02-16T08:20:05.894Z,983.60
2018-02-16T08:21:10.253Z,983.55
2018-02-16T08:22:05.586Z,983.57
2018-02-16T08:23:05.450Z,983.66
2018-02-16T08:24:05.125Z,983.63
2018-02-16T08:25:05.240Z,983.65
2018-02-16T08:26:05.096Z,983.68
2018-02-16T08:27:05.277Z,983.57
2018-02-16T08:28:05.282Z,983.60
2018-02-16T08:29:10.012Z,983.57
2018-02-16T08:30:06.922Z,983.71
2018-02-16T08:31:05.315Z,983.71
2018-02-16T08:32:05.372Z,983.68
2018-02-16T08:33:05.554Z,983.65
2018-02-16T08:34:05.239Z,983.59
2018-02-16T08:35:05.294Z,983.68
2018-02-16T08:36:05.900Z,983.65
2018-02-16T08:37:05.489Z,983.70
2018-02-16T08:38:05.832Z,983.67
2018-02-16T08:39:05.329Z,983.73
2018-02-16T08:40:05.855Z,983.79
2018-02-16T08:41:05.428Z,983.73
2018-02-16T08:42:05.375Z,983.67
2018-02-16T08:43:05.145Z,983.81
2018-02-16T08:44:04.993Z,983.78
2018-02-16T08:45:05.710Z,983.70
2018-02-16T08:46:05.930Z,983.84
2018-02-16T08:47:05.082Z,983.78
2018-02-16T08:48:05.909Z,983.84
2018-02-16T08:49:05.153Z,983.78
2018-02-16T08:50:05.647Z,983.78
2018-02-16T08:51:05.181Z,983.89
2018-02-16T08:52:05.898Z,983.81
2018-02-16T08:53:05.580Z,983.89
2018-02-16T08:54:05.340Z,983.83
2018-02-16T08:55:05.034Z,983.83
2018-02-16T08:56:05.933Z,983.86
2018-02-16T08:57:05.127Z,983.80
2018-02-16T08:58:05.728Z,983.72
2018-02-16T08:59:05.477Z,983.75
2018-02-16T09:00:05.443Z,983.77
2018-02-16T09:01:05.662Z,983.89
2018-02-16T09:02:05.680Z,983.63
2018-02-16T09:03:05.475Z,983.74
2018-02-16T09:04:05.250Z,983.91
2018-02-16T09:05:05.193Z,983.66
2018-02-16T09:06:05.433Z,983.72
2018-02-16T09:07:06.199Z,983.88
2018-02-16T09:08:05.431Z,983.74
2018-02-16T09:09:05.440Z,983.83
2018-02-16T09:10:05.556Z,983.74
2018-02-16T09:11:05.028Z,983.88
2018-02-16T09:12:05.862Z,983.83
2018-02-16T09:13:05.983Z,984.02
2018-02-16T09:14:05.531Z,983.88
2018-02-16T09:15:10.916Z,983.91
2018-02-16T09:16:05.548Z,983.88
2018-02-16T09:17:05.400Z,983.94
2018-02-16T09:18:05.986Z,983.99
2018-02-16T09:19:05.980Z,983.91
2018-02-16T09:20:05.783Z,984.08
2018-02-16T09:21:05.461Z,983.94
2018-02-16T09:22:05.847Z,983.99
2018-02-16T09:23:05.630Z,983.94
2018-02-16T09:24:05.783Z,984.05
2018-02-16T09:25:05.336Z,984.02
2018-02-16T09:26:05.341Z,984.07
2018-02-16T09:27:05.879Z,983.99
2018-02-16T09:28:05.459Z,984.07
2018-02-16T09:29:05.552Z,984.21
2018-02-16T09:30:05.186Z,984.13
2018-02-16T09:31:05.894Z,984.10
2018-02-16T09:32:06.047Z,984.24
2018-02-16T09:33:04.947Z,984.10
2018-02-16T09:34:06.119Z,984.04
2018-02-16T09:35:06.214Z,984.18
2018-02-16T09:36:05.225Z,984.10
2018-02-16T09:37:05.188Z,984.21
2018-02-16T09:38:05.412Z,984.12
2018-02-16T09:39:05.178Z,984.04
2018-02-16T09:40:05.219Z,984.10
2018-02-16T09:41:05.092Z,984.35
2018-02-16T09:42:05.873Z,984.04
2018-02-16T09:43:05.108Z,984.06
2018-02-16T09:44:05.934Z,984.23
2018-02-16T09:45:05.798Z,984.15
2018-02-16T09:46:05.757Z,984.26
2018-02-16T09:47:05.442Z,984.15
2018-02-16T09:48:05.003Z,984.15
2018-02-16T09:49:10.589Z,984.26
2018-02-16T09:50:05.578Z,984.29
2018-02-16T09:51:05.300Z,984.23
2018-02-16T09:52:05.072Z,984.42
2018-02-16T09:53:05.158Z,984.37
2018-02-16T09:54:05.640Z,984.25
2018-02-16T09:55:05.273Z,984.31
2018-02-16T09:56:05.390Z,984.22
2018-02-16T09:57:05.094Z,984.22
2018-02-16T09:58:05.576Z,984.39
2018-02-16T09:59:05.049Z,984.36
2018-02-16T10:00:05.041Z,984.47
2018-02-16T10:01:05.961Z,984.25
2018-02-16T10:02:05.456Z,984.28
2018-02-16T10:03:06.030Z,984.39
2018-02-16T10:04:05.594Z,984.30
2018-02-16T10:05:05.908Z,984.41
2018-02-16T10:06:10.658Z,984.41
2018-02-16T10:07:05.585Z,984.44
2018-02-16T10:08:05.069Z,984.55
2018-02-16T10:09:05.842Z,984.52
2018-02-16T10:10:05.452Z,984.52
2018-02-16T10:11:05.196Z,984.58
2018-02-16T10:12:05.750Z,984.41
2018-02-16T10:13:05.558Z,984.44
2018-02-16T10:14:05.926Z,984.46
2018-02-16T10:15:05.122Z,984.52
2018-02-16T10:16:05.622Z,984.38
2018-02-16T10:17:05.066Z,984.57
2018-02-16T10:18:05.933Z,984.49
2018-02-16T10:19:05.554Z,984.43
2018-02-16T10:20:05.309Z,984.52
2018-02-16T10:21:05.253Z,984.52
2018-02-16T10:22:10.145Z,984.49
2018-02-16T10:23:05.130Z,984.57
2018-02-16T10:24:05.883Z,984.77
2018-02-16T10:25:05.581Z,984.65
2018-02-16T10:26:05.691Z,984.63
2018-02-16T10:27:05.266Z,984.54
2018-02-16T10:28:06.652Z,984.60
2018-02-16T10:29:05.500Z,984.71
2018-02-16T10:30:06.125Z,984.54
2018-02-16T10:31:05.748Z,984.56
2018-02-16T10:32:05.636Z,984.56
2018-02-16T10:33:05.734Z,984.73
2018-02-16T10:34:05.875Z,984.62
2018-02-16T10:35:05.004Z,984.65
2018-02-16T10:36:05.078Z,984.73
2018-02-16T10:37:05.426Z,984.50
2018-02-16T10:38:05.881Z,984.70
2018-02-16T10:39:05.598Z,984.64
2018-02-16T10:40:05.393Z,984.73
2018-02-16T10:41:05.795Z,984.76
2018-02-16T10:42:05.507Z,984.56
2018-02-16T10:43:05.540Z,984.73
2018-02-16T10:44:05.103Z,984.64
2018-02-16T10:45:05.608Z,984.61
2018-02-16T10:46:05.448Z,984.64
2018-02-16T10:47:05.379Z,984.75
2018-02-16T10:48:05.773Z,984.69
2018-02-16T10:49:06.108Z,984.75
2018-02-16T10:50:05.445Z,984.61
2018-02-16T10:51:05.435Z,984.79
2018-02-16T10:52:05.566Z,984.75
2018-02-16T10:53:05.775Z,984.79
2018-02-16T10:54:04.959Z,984.66
2018-02-16T10:55:06.044Z,984.69
2018-02-16T10:56:05.812Z,984.66
2018-02-16T10:57:05.629Z,984.58
2018-02-16T10:58:05.616Z,984.58
2018-02-16T10:59:05.313Z,984.60
2018-02-16T11:00:05.919Z,984.58
2018-02-16T11:01:05.880Z,984.69
2018-02-16T11:02:05.548Z,984.58
2018-02-16T11:03:05.714Z,984.75
2018-02-16T11:04:05.381Z,984.66
2018-02-16T11:05:05.145Z,984.63
2018-02-16T11:06:04.930Z,984.60
2018-02-16T11:07:06.121Z,984.69
2018-02-16T11:08:05.406Z,984.74
2018-02-16T11:09:05.708Z,984.69
2018-02-16T11:10:05.468Z,984.57
2018-02-16T11:11:05.435Z,984.66
2018-02-16T11:12:05.822Z,984.63
2018-02-16T11:13:05.927Z,984.51
2018-02-16T11:14:05.625Z,984.66
2018-02-16T11:15:05.993Z,984.60
2018-02-16T11:16:05.350Z,984.65
2018-02-16T11:17:05.119Z,984.62
2018-02-16T11:18:05.600Z,984.71
2018-02-16T11:19:05.454Z,984.71
2018-02-16T11:20:05.574Z,984.65
2018-02-16T11:21:05.073Z,984.74
2018-02-16T11:22:05.108Z,984.71
2018-02-16T11:23:04.994Z,984.71
2018-02-16T11:24:06.293Z,984.68
2018-02-16T11:25:04.954Z,984.65
2018-02-16T11:26:05.392Z,984.53
2018-02-16T11:27:05.721Z,984.65
2018-02-16T11:28:05.660Z,984.67
2018-02-16T11:29:05.809Z,984.62
2018-02-16T11:30:05.819Z,984.64
2018-02-16T11:31:05.680Z,984.70
2018-02-16T11:32:10.988Z,984.61
2018-02-16T11:33:04.974Z,984.91
2018-02-16T11:34:05.827Z,984.77
2018-02-16T11:35:05.368Z,984.75
2018-02-16T11:36:05.575Z,984.67
2018-02-16T11:37:05.593Z,984.75
2018-02-16T11:38:05.581Z,984.64
2018-02-16T11:39:06.719Z,984.75
2018-02-16T11:40:06.819Z,984.55
2018-02-16T11:41:05.959Z,984.69
2018-02-16T11:42:06.093Z,984.64
2018-02-16T11:43:05.246Z,984.75
2018-02-16T11:44:05.249Z,984.67
2018-02-16T11:45:05.412Z,984.58
2018-02-16T11:46:05.427Z,984.58
2018-02-16T11:47:05.541Z,984.70
2018-02-16T11:48:05.239Z,984.70
2018-02-16T11:49:06.048Z,984.80
2018-02-16T11:50:05.616Z,984.91
2018-02-16T11:51:05.173Z,984.73
2018-02-16T11:52:05.869Z,984.76
2018-02-16T11:53:05.352Z,984.73
2018-02-16T11:54:05.242Z,984.73
2018-02-16T11:55:05.200Z,984.76
2018-02-16T11:56:05.730Z,984.78
2018-02-16T11:57:05.540Z,984.81
2018-02-16T11:58:05.366Z,984.81
2018-02-16T11:59:05.305Z,984.78
2018-02-16T12:00:05.145Z,984.86
2018-02-16T12:01:05.104Z,984.78
2018-02-16T12:02:05.043Z,984.81
2018-02-16T12:03:06.289Z,984.76
2018-02-16T12:04:05.244Z,984.87
2018-02-16T12:05:05.904Z,984.76
2018-02-16T12:06:04.986Z,984.81
2018-02-16T12:07:05.583Z,984.78
2018-02-16T12:08:05.680Z,984.81
2018-02-16T12:09:05.710Z,984.84
2018-02-16T12:10:05.234Z,984.93
2018-02-16T12:11:05.349Z,984.81
2018-02-16T12:12:05.000Z,984.81
2018-02-16T12:13:05.704Z,985.01
2018-02-16T12:14:05.422Z,984.81
2018-02-16T12:15:05.325Z,984.77
2018-02-16T12:16:05.460Z,984.90
2018-02-16T12:17:05.413Z,984.84
2018-02-16T12:18:05.943Z,984.87
2018-02-16T12:19:05.798Z,984.72
2018-02-16T12:20:05.898Z,984.85
2018-02-16T12:21:05.100Z,984.88
2018-02-16T12:22:05.962Z,984.91
2018-02-16T12:23:05.640Z,984.82
2018-02-16T12:24:05.525Z,984.77
2018-02-16T12:25:07.101Z,984.88
2018-02-16T12:26:05.576Z,984.72
2018-02-16T12:27:05.609Z,984.66
2018-02-16T12:28:05.441Z,984.69